Time;durP1;ratioP1;P1;durP2;ratioP2;P2;SDS_P1;SDS_P2;PMS_P1;PMS_P2;Temp;Humidity;BMP_temperature;BMP_pressure;BME280_temperature;BME280_humidity;BME280_pressure;Samples;Min_cycle;Max_cycle;Signal;HPM_P1;HPM_P2
2021/04/11 00:02:25;;;;;;;4.00;2.65;;;;;;;20.83;42.57;101517.19;1782987;79;21556;-56
2021/04/11 00:04:52;;;;;;;3.85;2.70;;;;;;;20.82;42.56;101514.98;1781236;78;21212;-57
2021/04/11 00:07:19;;;;;;;6.05;3.22;;;;;;;20.83;42.57;101518.58;1783183;78;21146;-57
2021/04/11 00:09:45;;;;;;;4.55;2.70;;;;;;;20.83;42.57;101515.81;1776217;78;21184;-59
2021/04/11 00:12:12;;;;;;;4.58;2.95;;;;;;;20.81;42.58;101515.28;1782915;78;21259;-57
2021/04/11 00:14:39;;;;;;;4.47;2.42;;;;;;;20.82;42.58;101521.90;1774168;79;21183;-57
2021/04/11 00:17:06;;;;;;;3.47;2.58;;;;;;;20.82;42.59;101520.52;1806079;77;21555;-57
2021/04/11 00:19:32;;;;;;;4.50;2.80;;;;;;;20.83;42.60;101515.81;1777187;79;21218;-57
2021/04/11 00:22:00;;;;;;;3.85;2.58;;;;;;;20.84;42.58;101514.66;1768747;80;21510;-57
2021/04/11 00:24:27;;;;;;;4.17;2.70;;;;;;;20.83;42.55;101517.19;1765017;80;21470;-57
2021/04/11 00:26:54;;;;;;;4.30;2.52;;;;;;;20.81;42.55;101514.72;1771105;79;21142;-57
2021/04/11 00:29:20;;;;;;;4.08;3.10;;;;;;;20.80;42.53;101515.83;1765913;79;22311;-57
2021/04/11 00:31:47;;;;;;;3.30;2.50;;;;;;;20.78;42.51;101515.33;1768849;79;21177;-57
2021/04/11 00:34:13;;;;;;;2.95;2.30;;;;;;;20.78;42.51;101511.74;1774877;80;21695;-58
2021/04/11 00:36:40;;;;;;;4.25;2.87;;;;;;;20.77;42.49;101506.77;1768667;79;21530;-57
2021/04/11 00:39:07;;;;;;;3.62;2.52;;;;;;;20.77;42.48;101514.23;1765481;80;21546;-57
2021/04/11 00:41:40;;;;;;;4.28;2.77;;;;;;;20.74;42.48;101512.91;1769867;79;21189;-57
2021/04/11 00:44:07;;;;;;;3.75;2.87;;;;;;;20.73;42.45;101510.44;1741790;80;21546;-57
2021/04/11 00:46:55;;;;;;;3.00;2.33;;;;;;;20.72;42.45;101518.46;1767163;80;21627;-58
2021/04/11 00:49:38;;;;;;;4.55;2.70;;;;;;;20.69;42.45;101509.39;1766657;79;21509;-57
2021/04/11 00:52:07;;;;;;;4.12;2.60;;;;;;;20.68;42.42;101516.04;1764819;79;21224;-57
2021/04/11 00:54:34;;;;;;;3.75;2.58;;;;;;;20.67;42.40;101514.39;1769652;79;21195;-57
2021/04/11 00:57:01;;;;;;;3.90;2.60;;;;;;;20.65;42.38;101511.95;1768031;79;21110;-58
2021/04/11 00:59:28;;;;;;;4.62;3.27;;;;;;;20.63;42.38;101516.12;1766386;79;21150;-57
2021/04/11 01:01:55;;;;;;;3.75;2.47;;;;;;;20.61;42.40;101520.58;1770957;80;21142;-57
2021/04/11 01:04:21;;;;;;;3.45;2.40;;;;;;;20.59;42.39;101511.75;1777563;79;21133;-57
2021/04/11 01:06:54;;;;;;;3.67;2.60;;;;;;;20.59;42.38;101515.91;1771616;80;21192;-57
2021/04/11 01:09:26;;;;;;;3.87;2.92;;;;;;;20.58;42.37;101520.38;1747830;80;21198;-57
2021/04/11 01:11:54;;;;;;;3.72;2.62;;;;;;;20.56;42.34;101517.89;1772899;79;21250;-56
2021/04/11 01:14:21;;;;;;;3.08;2.22;;;;;;;20.55;42.33;101522.33;1776622;78;21106;-57
2021/04/11 01:16:48;;;;;;;3.80;2.33;;;;;;;20.53;42.34;101528.73;1746393;80;21163;-57
2021/04/11 01:19:35;;;;;;;3.75;2.65;;;;;;;20.51;42.34;101527.08;1781374;78;22571;-57
2021/04/11 01:22:37;;;;;;;3.58;2.50;;;;;;;20.55;42.28;101526.47;1861218;75;22231;-57
2021/04/11 01:25:09;;;;;;;3.83;2.50;;;;;;;20.50;42.30;101525.98;1814250;77;20987;-57
2021/04/11 01:27:36;;;;;;;3.42;2.10;;;;;;;20.49;42.29;101532.11;1829287;77;21418;-57
2021/04/11 01:30:20;;;;;;;4.33;2.45;;;;;;;20.45;42.25;101526.09;1831187;77;21043;-57
2021/04/11 01:32:49;;;;;;;3.77;2.62;;;;;;;20.43;42.26;101531.08;1823299;77;21107;-58
2021/04/11 01:35:17;;;;;;;4.40;2.70;;;;;;;20.41;42.26;101531.95;1828108;77;21518;-57
2021/04/11 01:37:43;;;;;;;3.15;2.45;;;;;;;20.40;42.27;101533.07;1790852;78;21631;-58
2021/04/11 01:40:14;;;;;;;2.95;2.20;;;;;;;20.42;42.26;101530.81;1799904;78;21194;-57
2021/04/11 01:42:41;;;;;;;3.47;2.30;;;;;;;20.40;42.25;101531.69;1743135;80;22033;-57
2021/04/11 01:45:11;;;;;;;3.67;2.40;;;;;;;20.40;42.24;101531.13;1766094;78;21533;-57
2021/04/11 01:47:38;;;;;;;4.45;2.95;;;;;;;20.37;42.25;101524.80;1754173;79;21086;-58
2021/04/11 01:50:08;;;;;;;3.70;2.08;;;;;;;20.36;42.22;101529.27;1782789;79;21039;-57
2021/04/11 01:52:36;;;;;;;4.05;2.05;;;;;;;20.32;42.24;101533.19;1789882;78;21203;-58
2021/04/11 01:55:05;;;;;;;3.92;2.15;;;;;;;20.33;42.26;101536.75;1791743;78;21184;-57
2021/04/11 01:57:33;;;;;;;3.15;2.15;;;;;;;20.37;42.26;101529.50;1788367;79;21110;-58
2021/04/11 02:00:19;;;;;;;3.02;1.95;;;;;;;20.40;42.30;101533.89;1788228;79;21187;-57
2021/04/11 02:02:46;;;;;;;2.87;2.00;;;;;;;20.45;42.28;101534.38;1791281;79;21193;-57
2021/04/11 02:05:16;;;;;;;2.85;2.00;;;;;;;20.48;42.31;101532.39;1793640;79;21589;-58
2021/04/11 02:07:44;;;;;;;3.45;2.30;;;;;;;20.51;42.29;101534.55;1794021;79;21157;-57
2021/04/11 02:10:12;;;;;;;2.37;1.98;;;;;;;20.53;42.30;101535.64;1792823;78;21152;-57
2021/04/11 02:12:38;;;;;;;2.75;2.08;;;;;;;20.56;42.32;101544.16;1762704;79;21116;-57
2021/04/11 02:15:19;;;;;;;3.05;2.10;;;;;;;20.60;42.34;101542.44;1764791;79;21153;-57
2021/04/11 02:17:47;;;;;;;2.80;2.13;;;;;;;20.65;42.34;101542.92;1792482;78;21202;-57
2021/04/11 02:20:15;;;;;;;2.70;2.08;;;;;;;20.68;42.32;101541.75;1790128;79;21181;-58
2021/04/11 02:22:42;;;;;;;2.62;1.87;;;;;;;20.72;42.29;101543.34;1793958;79;21095;-57
2021/04/11 02:25:15;;;;;;;2.95;2.02;;;;;;;20.73;42.29;101543.62;1787485;79;21130;-57
2021/04/11 02:27:42;;;;;;;2.83;1.72;;;;;;;20.74;42.30;101541.95;1794035;79;21182;-57
2021/04/11 02:30:12;;;;;;;2.52;1.80;;;;;;;20.76;42.33;101538.86;1795130;79;21575;-57
2021/04/11 02:32:39;;;;;;;3.42;1.95;;;;;;;20.77;42.30;101546.87;1790957;79;21474;-57
2021/04/11 02:35:08;;;;;;;2.47;2.10;;;;;;;20.78;42.33;101545.75;1772269;80;21134;-57
2021/04/11 02:37:35;;;;;;;2.27;1.75;;;;;;;20.81;42.32;101554.82;1776844;79;21605;-58
2021/04/11 02:40:02;;;;;;;2.22;1.57;;;;;;;20.81;42.34;101560.35;1740753;79;21105;-58
2021/04/11 02:42:34;;;;;;;3.17;2.30;;;;;;;20.81;42.32;101554.82;1791783;79;22174;-57
2021/04/11 02:45:11;;;;;;;3.30;2.02;;;;;;;20.80;42.33;101556.49;1792452;78;21166;-57
2021/04/11 02:47:38;;;;;;;2.95;1.70;;;;;;;20.80;42.32;101566.17;1790628;79;21055;-57
2021/04/11 02:50:06;;;;;;;3.42;2.22;;;;;;;20.78;42.33;101559.58;1794064;79;21157;-57
2021/04/11 02:52:38;;;;;;;2.90;2.20;;;;;;;20.79;42.32;101558.43;1795120;78;21194;-60
2021/04/11 02:55:07;;;;;;;3.45;1.98;;;;;;;20.80;42.29;101567.55;1765984;80;21253;-57
2021/04/11 02:57:34;;;;;;;3.70;2.27;;;;;;;20.80;42.32;101572.53;1739903;79;21502;-57
2021/04/11 03:00:01;;;;;;;2.65;1.80;;;;;;;20.78;42.26;101570.64;1772683;79;21449;-57
2021/04/11 03:02:27;;;;;;;3.12;2.00;;;;;;;20.77;42.22;101577.28;1767847;79;21092;-57
2021/04/11 03:04:54;;;;;;;3.35;2.02;;;;;;;20.75;42.23;101574.58;1786588;78;21312;-57
2021/04/11 03:07:31;;;;;;;2.75;1.85;;;;;;;20.72;42.22;101573.21;1782672;79;21197;-59
2021/04/11 03:10:08;;;;;;;2.80;2.05;;;;;;;20.73;42.22;101576.25;1779634;79;21160;-57
2021/04/11 03:12:36;;;;;;;3.25;1.90;;;;;;;20.72;42.19;101582.89;1750531;79;21632;-57
2021/04/11 03:15:05;;;;;;;3.55;1.95;;;;;;;20.71;42.17;101579.86;1775513;79;21232;-57
2021/04/11 03:17:31;;;;;;;3.20;2.00;;;;;;;20.70;42.17;101581.00;1780080;79;21197;-57
2021/04/11 03:20:21;;;;;;;2.55;2.08;;;;;;;20.68;42.14;101590.14;1768603;78;21239;-58
2021/04/11 03:22:56;;;;;;;3.02;2.00;;;;;;;20.65;42.12;101595.45;1674429;83;21192;-57
2021/04/11 03:25:23;;;;;;;3.10;1.90;;;;;;;20.62;42.12;101589.15;1704553;81;21073;-58
2021/04/11 03:28:12;;;;;;;2.98;2.08;;;;;;;20.61;42.11;101591.09;1701453;83;21513;-57
2021/04/11 03:30:44;;;;;;;2.77;1.72;;;;;;;20.61;42.10;101591.09;1698869;82;21619;-57
2021/04/11 03:33:17;;;;;;;2.87;1.92;;;;;;;20.59;42.07;101596.63;1686808;83;21590;-58
2021/04/11 03:35:45;;;;;;;2.70;1.77;;;;;;;20.57;42.07;101591.42;1689773;83;21149;-57
2021/04/11 03:38:13;;;;;;;2.67;1.80;;;;;;;20.54;42.06;101600.29;1702777;82;21134;-58
2021/04/11 03:40:42;;;;;;;3.20;2.17;;;;;;;20.51;42.02;101599.52;1697051;82;21178;-57
2021/04/11 03:43:15;;;;;;;1.95;1.65;;;;;;;20.50;42.05;101604.77;1695854;82;21226;-57
2021/04/11 03:45:42;;;;;;;3.15;2.12;;;;;;;20.50;42.05;101611.12;1696709;82;22160;-59
2021/04/11 03:48:49;;;;;;;3.08;2.20;;;;;;;20.50;42.03;101607.53;1693033;82;21194;-57
2021/04/11 03:51:25;;;;;;;2.45;1.85;;;;;;;20.48;42.01;101609.23;1704814;81;21281;-57
2021/04/11 03:54:15;;;;;;;3.02;2.12;;;;;;;20.44;41.99;101613.72;1706690;81;21177;-57
2021/04/11 03:56:54;;;;;;;3.40;1.95;;;;;;;20.41;41.98;101614.28;1708846;81;21134;-57
2021/04/11 03:59:24;;;;;;;3.65;2.00;;;;;;;20.39;41.99;101628.16;1711575;81;22654;-57
2021/04/11 04:01:53;;;;;;;2.52;2.02;;;;;;;20.37;42.01;101631.75;1709184;81;21161;-56
2021/04/11 04:04:22;;;;;;;3.62;2.08;;;;;;;20.37;42.01;101636.73;1709881;81;21443;-57
2021/04/11 04:07:10;;;;;;;2.60;1.62;;;;;;;20.38;41.98;101629.27;1705256;81;21200;-60
2021/04/11 04:09:37;;;;;;;3.08;1.80;;;;;;;20.39;42.01;101635.06;1706788;81;21141;-57
2021/04/11 04:12:18;;;;;;;2.52;1.70;;;;;;;20.41;42.03;101635.60;1707169;81;21331;-57
2021/04/11 04:15:10;;;;;;;;;;;;;;;20.43;42.05;101641.09;1679565;83;21004;-58
2021/04/11 04:18:17;;;;;;;2.80;1.80;;;;;;;20.46;42.09;101649.33;1711724;81;20176;-56
2021/04/11 04:21:08;;;;;;;3.30;1.90;;;;;;;20.48;42.13;101646.55;1714926;81;21192;-56
2021/04/11 04:23:55;;;;;;;3.20;1.67;;;;;;;20.54;42.12;101652.81;1707211;81;21221;-57
2021/04/11 04:26:44;;;;;;;3.45;2.17;;;;;;;20.63;42.11;101658.50;1859532;75;24189;-57
2021/04/11 04:29:43;;;;;;;3.55;2.42;;;;;;;20.61;42.11;101657.44;1833949;77;20995;-57
2021/04/11 04:32:30;;;;;;;2.08;1.47;;;;;;;20.63;42.11;101658.50;1832221;77;22094;-57
2021/04/11 04:35:19;;;;;;;2.90;1.82;;;;;;;20.66;42.12;101662.08;1832004;77;20987;-56
2021/04/11 04:38:10;;;;;;;3.08;1.70;;;;;;;20.68;42.15;101657.06;1829873;77;20997;-58
2021/04/11 04:41:11;;;;;;;2.90;1.80;;;;;;;20.71;42.17;101668.93;1833078;77;21358;-57
2021/04/11 04:44:00;;;;;;;3.77;1.95;;;;;;;20.75;42.15;101676.89;1771577;78;26797;-57
2021/04/11 04:46:59;;;;;;;3.08;1.80;;;;;;;20.76;42.15;101675.75;1763812;78;23188;-57
2021/04/11 04:50:00;;;;;;;3.05;1.85;;;;;;;20.77;42.15;101680.16;1775988;79;21092;-58
2021/04/11 04:52:30;;;;;;;3.25;2.00;;;;;;;20.77;42.16;101676.02;1769764;79;21182;-58
2021/04/11 04:55:19;;;;;;;3.52;1.80;;;;;;;20.79;42.19;101684.86;1770403;79;21552;-58
2021/04/11 04:57:50;;;;;;;3.62;1.92;;;;;;;20.81;42.20;101685.36;1770666;79;21190;-58
2021/04/11 05:00:36;;;;;;;2.85;1.80;;;;;;;20.83;42.18;101688.67;1769573;80;21525;-58
2021/04/11 05:03:23;;;;;;;2.85;2.10;;;;;;;20.84;42.19;101684.76;1768491;79;21485;-58
2021/04/11 05:06:06;;;;;;;3.25;1.98;;;;;;;20.84;42.22;101685.59;1755320;80;21224;-58
2021/04/11 05:08:44;;;;;;;3.75;2.05;;;;;;;20.83;42.20;101683.97;1772422;80;21204;-59
2021/04/11 05:11:31;;;;;;;3.65;1.77;;;;;;;20.84;42.24;101681.99;1772843;79;21177;-59
2021/04/11 05:14:02;;;;;;;2.75;1.80;;;;;;;20.86;42.23;101688.89;1766768;79;21526;-60
2021/04/11 05:16:39;;;;;;;3.30;2.30;;;;;;;20.88;42.24;101698.25;1742883;80;21097;-60
2021/04/11 05:19:13;;;;;;;3.47;2.00;;;;;;;20.88;42.24;101694.11;1768766;79;21734;-60
2021/04/11 05:21:47;;;;;;;3.17;1.92;;;;;;;20.87;42.25;101698.84;1779662;79;21191;-57
2021/04/11 05:24:17;;;;;;;3.77;2.20;;;;;;;20.87;42.24;101703.55;1765631;79;21107;-59
2021/04/11 05:26:56;;;;;;;4.33;2.23;;;;;;;20.85;42.22;101709.37;1761449;80;21218;-59
2021/04/11 05:29:46;;;;;;;3.92;2.22;;;;;;;20.83;42.20;101715.77;1759433;80;21494;-58
2021/04/11 05:32:13;;;;;;;3.98;2.40;;;;;;;20.83;42.19;101713.56;1759090;80;21634;-59
2021/04/11 05:34:40;;;;;;;2.77;2.05;;;;;;;20.83;42.17;101714.39;1757020;80;21202;-58
2021/04/11 05:37:17;;;;;;;2.80;1.72;;;;;;;20.83;42.14;101712.18;1758229;80;21518;-57
2021/04/11 05:40:03;;;;;;;2.90;1.77;;;;;;;20.82;42.13;101711.91;1753405;78;21232;-58
2021/04/11 05:42:47;;;;;;;3.37;2.30;;;;;;;20.80;42.12;101716.34;1769880;80;21199;-56
2021/04/11 05:45:31;;;;;;;4.10;2.60;;;;;;;20.77;42.10;101715.56;1768468;80;20988;-58
2021/04/11 05:48:30;;;;;;;4.67;2.98;;;;;;;20.75;42.10;101715.02;1769879;79;21169;-57
2021/04/11 05:51:19;;;;;;;7.53;4.37;;;;;;;20.74;42.09;101706.48;1776147;80;21327;-58
2021/04/11 05:53:58;;;;;;;11.38;5.95;;;;;;;20.74;42.08;101715.34;1762180;80;21267;-58
2021/04/11 05:56:28;;;;;;;14.25;7.53;;;;;;;20.73;42.07;101724.75;1768906;80;21178;-59
2021/04/11 05:59:00;;;;;;;13.88;7.55;;;;;;;20.71;42.06;101728.39;1770886;80;21167;-58
2021/04/11 06:01:31;;;;;;;14.60;7.83;;;;;;;20.67;42.07;101725.36;1742864;80;21541;-58
2021/04/11 06:04:06;;;;;;;16.75;8.10;;;;;;;20.64;42.04;101720.44;1764106;79;21110;-58
2021/04/11 06:06:43;;;;;;;14.87;8.18;;;;;;;20.63;42.08;101720.72;1784247;79;21150;-59
2021/04/11 06:09:35;;;;;;;16.67;8.13;;;;;;;20.64;42.09;101716.28;1783553;79;21122;-58
2021/04/11 06:12:26;;;;;;;14.05;7.50;;;;;;;20.67;42.12;101719.83;1770649;79;21543;-58
2021/04/11 06:14:58;;;;;;;;;;;;;;;20.70;42.16;101718.44;1779052;79;21449;-58
2021/04/11 06:17:24;;;;;;;13.38;6.87;;;;;;;20.72;42.19;101716.18;1776233;79;20293;-58
2021/04/11 06:19:51;;;;;;;17.10;7.72;;;;;;;20.71;42.21;101716.73;1748379;79;21205;-59
2021/04/11 06:22:37;;;;;;;14.05;8.20;;;;;;;20.75;42.24;101719.76;1773294;79;21251;-59
2021/04/11 06:25:19;;;;;;;15.65;7.08;;;;;;;20.77;42.24;101714.18;1792608;78;21356;-60
2021/04/11 06:27:54;;;;;;;13.55;7.87;;;;;;;20.81;42.24;101717.17;1754032;79;21636;-59
2021/04/11 06:30:31;;;;;;;16.27;8.13;;;;;;;20.85;42.25;101720.98;1783352;79;21172;-59
2021/04/11 06:33:08;;;;;;;14.38;7.33;;;;;;;20.88;42.24;101719.83;1807245;77;21233;-59
2021/04/11 06:35:48;;;;;;;14.20;7.90;;;;;;;20.90;42.26;101716.77;1778448;79;21149;-60
2021/04/11 06:38:21;;;;;;;18.97;8.10;;;;;;;20.92;42.28;101713.95;1797958;78;21063;-59
2021/04/11 06:41:08;;;;;;;14.68;7.97;;;;;;;20.94;42.27;101711.73;1806293;78;21153;-59
2021/04/11 06:44:01;;;;;;;14.75;7.78;;;;;;;20.97;42.28;101714.45;1773413;78;21142;-59
2021/04/11 06:47:03;;;;;;;16.30;8.45;;;;;;;21.00;42.27;101718.03;1790897;78;21214;-59
2021/04/11 06:49:59;;;;;;;16.32;7.97;;;;;;;21.00;42.27;101718.03;1803107;78;21151;-57
2021/04/11 06:53:21;;;;;;;13.93;7.65;;;;;;;21.02;42.28;101723.24;1797998;78;21118;-57
2021/04/11 06:56:20;;;;;;;;;;;;;;;20.99;42.28;101724.67;1803289;78;21359;-59
2021/04/11 06:59:19;;;;;;;16.70;9.05;;;;;;;21.00;42.30;101723.56;1796145;78;20226;-59
2021/04/11 07:02:12;;;;;;;15.30;8.23;;;;;;;20.98;42.30;101732.15;1794188;78;21382;-58
2021/04/11 07:05:15;;;;;;;16.73;8.95;;;;;;;20.96;42.33;101728.84;1796956;78;21362;-58
2021/04/11 07:07:59;;;;;;;16.45;8.63;;;;;;;20.95;42.34;101735.52;1797159;78;21055;-59
2021/04/11 07:10:37;;;;;;;17.15;9.23;;;;;;;20.93;42.37;101732.21;1795898;78;21075;-59
2021/04/11 07:13:35;;;;;;;17.60;9.80;;;;;;;20.92;42.40;101731.94;1799909;78;21494;-59
2021/04/11 07:16:22;;;;;;;19.20;9.25;;;;;;;20.93;42.42;101730.83;1791885;78;21534;-59
2021/04/11 07:19:21;;;;;;;18.15;9.25;;;;;;;20.93;42.42;101735.53;1795715;78;21162;-58
2021/04/11 07:22:26;;;;;;;17.75;9.00;;;;;;;20.92;42.42;101738.86;1778976;79;21201;-59
2021/04/11 07:25:16;;;;;;;15.18;9.13;;;;;;;20.90;42.42;101744.44;1801300;78;21173;-59
2021/04/11 07:27:58;;;;;;;18.35;10.18;;;;;;;20.88;42.43;101737.80;1785808;78;21202;-59
2021/04/11 07:30:51;;;;;;;19.05;8.95;;;;;;;20.87;42.43;101737.56;1797928;78;21393;-59
2021/04/11 07:33:43;;;;;;;17.37;9.70;;;;;;;20.88;42.44;101733.66;1773031;79;21460;-59
2021/04/11 07:36:24;;;;;;;15.53;8.95;;;;;;;20.88;42.44;101741.13;1774807;79;21712;-59
2021/04/11 07:39:30;;;;;;;18.40;9.65;;;;;;;20.87;42.42;101729.83;1789040;78;21494;-58
2021/04/11 07:42:26;;;;;;;15.08;9.05;;;;;;;20.86;42.42;101731.77;1770560;78;21210;-58
2021/04/11 07:45:42;;;;;;;17.23;9.68;;;;;;;20.84;42.43;101737.31;1750172;78;21288;-58
2021/04/11 07:48:44;;;;;;;16.95;9.80;;;;;;;20.80;42.43;101737.64;1727985;80;21268;-59
2021/04/11 07:51:51;;;;;;;16.97;9.45;;;;;;;20.78;42.43;101743.48;1738974;80;21145;-58
2021/04/11 07:54:38;;;;;;;16.65;9.30;;;;;;;20.77;42.44;101747.37;1788149;78;21169;-59
2021/04/11 07:57:25;;;;;;;16.32;10.20;;;;;;;20.75;42.46;101746.83;1796678;78;21189;-58
2021/04/11 08:00:34;;;;;;;20.90;10.15;;;;;;;20.75;42.48;101755.70;1757420;78;21212;-59
2021/04/11 08:03:32;;;;;;;18.42;9.45;;;;;;;20.71;42.46;101755.45;1756516;80;21191;-59
2021/04/11 08:06:13;;;;;;;15.72;9.05;;;;;;;20.69;42.49;101751.34;1793318;78;21550;-59
2021/04/11 08:09:02;;;;;;;20.43;9.50;;;;;;;20.68;42.53;101756.05;1791670;78;21835;-59
2021/04/11 08:12:03;;;;;;;18.50;9.40;;;;;;;20.67;42.53;101751.63;1742642;78;21641;-59
2021/04/11 08:14:43;;;;;;;;;;;;;;;20.65;42.54;101756.65;1800912;78;20995;-59
2021/04/11 08:18:05;;;;;;;17.73;9.13;;;;;;;20.63;42.55;101754.72;1794259;78;20192;-59
2021/04/11 08:21:04;;;;;;;17.57;9.60;;;;;;;20.60;42.59;101750.34;1795489;77;21347;-58
2021/04/11 08:24:25;;;;;;;18.57;9.75;;;;;;;20.58;42.61;101752.02;1798741;78;21778;-58
2021/04/11 08:27:21;;;;;;;17.32;10.48;;;;;;;20.57;42.63;101750.95;1790183;78;22387;-58
2021/04/11 08:30:23;;;;;;;17.90;9.55;;;;;;;20.56;42.62;101752.88;1796154;78;21706;-58
2021/04/11 08:33:20;;;;;;;16.60;9.98;;;;;;;20.54;42.64;101749.58;1801090;78;21114;-58
2021/04/11 08:36:10;;;;;;;16.97;9.70;;;;;;;20.53;42.68;101752.66;1803447;78;21210;-58
2021/04/11 08:38:51;;;;;;;16.45;9.50;;;;;;;20.51;42.70;101755.15;1796006;78;21232;-60
2021/04/11 08:41:53;;;;;;;;;;;;;;;20.55;42.74;101741.55;1799188;78;21212;-59
2021/04/11 08:45:01;;;;;;;20.50;9.38;;;;;;;20.60;42.78;101739.29;1794298;78;21205;-59
2021/04/11 08:47:58;;;;;;;20.27;11.18;;;;;;;20.62;42.79;101740.66;1771655;80;21617;-58
2021/04/11 08:50:48;;;;;;;23.02;11.57;;;;;;;20.67;42.78;101738.36;1765323;80;21688;-59
2021/04/11 08:53:47;;;;;;;26.68;13.03;;;;;;;20.70;42.81;101748.30;1774585;80;21793;-59
2021/04/11 08:56:33;;;;;;;22.58;11.90;;;;;;;20.74;42.84;101749.35;1783327;78;21130;-59
2021/04/11 08:59:10;;;;;;;27.52;13.65;;;;;;;20.80;42.87;101740.41;1796556;79;21647;-59
2021/04/11 09:01:54;;;;;;;25.12;12.45;;;;;;;20.85;42.87;101737.58;1721569;80;21134;-59
2021/04/11 09:05:02;;;;;;;25.15;14.58;;;;;;;20.89;42.85;101729.78;1776179;79;21169;-59
2021/04/11 09:07:53;;;;;;;26.62;14.23;;;;;;;20.92;42.83;101736.09;1774257;79;21066;-60
2021/04/11 09:10:56;;;;;;;25.35;13.62;;;;;;;20.94;42.85;101733.87;1765423;79;21044;-59
2021/04/11 09:13:50;;;;;;;29.65;14.30;;;;;;;20.96;42.85;101734.96;1775185;79;21199;-58
2021/04/11 09:16:39;;;;;;;27.37;14.00;;;;;;;20.98;42.86;101733.53;1803401;78;21247;-58
2021/04/11 09:19:40;;;;;;;28.65;13.70;;;;;;;21.02;42.89;101731.55;1801430;78;21163;-58
2021/04/11 09:22:41;;;;;;;30.05;15.25;;;;;;;21.05;42.88;101735.91;1807177;78;26615;-58
2021/04/11 09:25:20;;;;;;;;;;;;;;;21.06;42.87;101725.67;1771325;80;21118;-59
2021/04/11 09:28:02;;;;;;;29.45;14.38;;;;;;;21.06;42.87;101727.88;1745469;80;21211;-59
2021/04/11 09:30:53;;;;;;;31.65;15.70;;;;;;;21.05;42.89;101726.23;1715168;80;21224;-59
2021/04/11 09:33:35;;;;;;;26.05;14.03;;;;;;;21.04;42.90;101723.78;1763602;80;21086;-58
2021/04/11 09:36:21;;;;;;;28.12;14.75;;;;;;;21.04;42.94;101720.45;1770592;80;21080;-59
2021/04/11 09:39:20;;;;;;;34.03;17.52;;;;;;;21.07;42.95;101728.71;1765977;80;21359;-60
2021/04/11 09:42:29;;;;;;;29.92;15.48;;;;;;;21.09;42.95;101727.28;1770127;80;21568;-60
2021/04/11 09:45:11;;;;;;;37.42;17.45;;;;;;;21.11;42.94;101726.98;1780357;79;21149;-59
2021/04/11 09:47:58;;;;;;;36.00;18.32;;;;;;;21.11;42.95;101721.45;1741699;80;21561;-59
2021/04/11 09:51:04;;;;;;;32.10;16.95;;;;;;;21.11;42.94;101718.69;1779690;78;21176;-60
2021/04/11 09:53:51;;;;;;;30.57;17.50;;;;;;;21.10;42.95;101714.27;1739517;80;21058;-58
2021/04/11 09:56:50;;;;;;;33.63;17.40;;;;;;;21.11;42.95;101720.07;1791198;78;21187;-59
2021/04/11 09:59:31;;;;;;;34.13;18.27;;;;;;;21.13;42.95;101706.80;1717223;78;21154;-59
2021/04/11 10:02:13;;;;;;;32.93;18.52;;;;;;;21.15;42.91;101703.98;1762194;80;20892;-59
2021/04/11 10:05:12;;;;;;;34.58;18.23;;;;;;;21.17;42.90;101703.70;1761884;80;21156;-58
2021/04/11 10:08:05;;;;;;;33.33;18.10;;;;;;;21.17;42.91;101702.31;1762233;80;21337;-57
2021/04/11 10:11:04;;;;;;;38.28;18.85;;;;;;;21.18;42.90;101706.70;1756930;79;21238;-61
2021/04/11 10:13:42;;;;;;;37.03;19.00;;;;;;;21.18;42.92;101697.02;1757592;79;21241;-60
2021/04/11 10:16:17;;;;;;;35.05;18.73;;;;;;;21.20;42.92;101698.38;1752436;79;21184;-59
2021/04/11 10:19:26;;;;;;;31.27;17.82;;;;;;;21.24;42.92;101701.37;1746076;79;21209;-59
2021/04/11 10:22:10;;;;;;;38.23;19.80;;;;;;;21.25;42.90;101704.41;1781729;78;21240;-59
2021/04/11 10:25:28;;;;;;;32.98;16.95;;;;;;;21.27;42.88;101700.75;1783172;78;21188;-58
2021/04/11 10:28:23;;;;;;;34.70;18.67;;;;;;;21.27;42.87;101697.98;1748655;79;21548;-58
2021/04/11 10:31:19;;;;;;;32.95;17.70;;;;;;;21.27;42.87;101697.98;1767614;78;21219;-58
2021/04/11 10:34:02;;;;;;;34.03;18.75;;;;;;;21.30;42.86;101695.44;1772901;79;21082;-58
2021/04/11 10:36:51;;;;;;;33.80;18.17;;;;;;;21.34;42.86;101701.22;1783572;78;21612;-59
2021/04/11 10:40:02;;;;;;;29.32;17.37;;;;;;;21.37;42.84;101690.36;1781639;78;21258;-58
2021/04/11 10:42:46;;;;;;;31.30;17.87;;;;;;;21.39;42.82;101688.09;1775094;79;21502;-59
2021/04/11 10:45:43;;;;;;;34.13;19.65;;;;;;;21.43;42.77;101695.82;1775749;78;21190;-59
2021/04/11 10:48:49;;;;;;;27.73;15.30;;;;;;;21.43;42.75;101689.14;1741878;80;21183;-59
2021/04/11 10:51:45;;;;;;;33.75;17.20;;;;;;;21.46;42.74;101695.20;1759697;79;21122;-59
2021/04/11 10:54:43;;;;;;;31.00;17.50;;;;;;;21.49;42.76;101689.89;1765390;79;21197;-58
2021/04/11 10:57:40;;;;;;;30.23;17.20;;;;;;;21.52;42.73;101686.50;1745621;80;21179;-59
2021/04/11 11:00:25;;;;;;;29.85;17.17;;;;;;;21.56;42.72;101688.09;1758101;79;21178;-58
2021/04/11 11:03:23;;;;;;;29.70;15.68;;;;;;;21.58;42.70;101687.25;1750433;79;21133;-60
2021/04/11 11:06:29;;;;;;;27.20;15.68;;;;;;;21.59;42.68;101685.57;1743843;80;21095;-59
2021/04/11 11:09:13;;;;;;;25.97;14.63;;;;;;;21.61;42.69;101679.15;1749920;80;22156;-58
2021/04/11 11:12:03;;;;;;;30.27;17.00;;;;;;;21.65;42.70;101682.13;1781114;79;21182;-59
2021/04/11 11:14:47;;;;;;;32.30;16.93;;;;;;;21.69;42.68;101681.78;1734928;80;21127;-57
2021/04/11 11:17:38;;;;;;;29.77;16.12;;;;;;;21.72;42.65;101673.71;1760390;79;21150;-59
2021/04/11 11:20:18;;;;;;;29.95;16.70;;;;;;;21.75;42.63;101671.70;1752616;79;21562;-59
2021/04/11 11:23:10;;;;;;;28.07;16.42;;;;;;;21.78;42.61;101661.39;1758664;79;21577;-59
2021/04/11 11:26:01;;;;;;;27.67;16.15;;;;;;;21.80;42.59;101667.47;1750730;79;21841;-58
2021/04/11 11:28:59;;;;;;;29.00;15.70;;;;;;;21.83;42.58;101666.84;1774659;78;21130;-58
2021/04/11 11:32:02;;;;;;;32.08;16.73;;;;;;;21.85;42.58;101660.42;1782638;79;21673;-59
2021/04/11 11:35:03;;;;;;;30.27;16.95;;;;;;;21.90;42.59;101655.35;1785564;78;21121;-59
2021/04/11 11:37:44;;;;;;;31.80;17.82;;;;;;;21.96;42.56;101653.34;1763356;80;21194;-59
2021/04/11 11:40:43;;;;;;;28.62;16.85;;;;;;;21.98;42.51;101654.67;1769668;80;28255;-59
2021/04/11 11:43:31;;;;;;;31.45;16.48;;;;;;;22.02;42.50;101652.14;1766956;80;21142;-58
2021/04/11 11:46:17;;;;;;;24.52;15.85;;;;;;;22.04;42.52;101644.31;1772421;80;21071;-59
2021/04/11 11:49:28;;;;;;;28.23;16.10;;;;;;;22.07;42.51;101636.20;1764710;80;21163;-59
2021/04/11 11:52:18;;;;;;;31.68;16.75;;;;;;;22.12;42.49;101632.52;1799374;78;21208;-59
2021/04/11 11:54:58;;;;;;;27.47;15.40;;;;;;;22.15;42.47;101624.40;1771603;80;21221;-58
2021/04/11 11:57:59;;;;;;;26.30;14.35;;;;;;;22.19;42.44;101632.95;1769190;80;21181;-58
2021/04/11 12:00:35;;;;;;;24.50;15.35;;;;;;;22.21;42.45;101628.72;1764540;80;21214;-60
2021/04/11 12:03:36;;;;;;;25.57;15.30;;;;;;;22.23;42.43;101614.56;1770769;79;21206;-60
2021/04/11 12:06:23;;;;;;;25.00;14.35;;;;;;;22.26;42.43;101618.09;1771079;80;23598;-58
2021/04/11 12:09:19;;;;;;;27.48;15.55;;;;;;;22.31;42.43;101620.77;1764903;80;21122;-59
2021/04/11 12:12:10;;;;;;;23.20;14.00;;;;;;;22.36;42.40;101623.44;1777301;80;21671;-59
2021/04/11 12:15:08;;;;;;;26.25;14.90;;;;;;;22.40;42.39;101617.52;1761557;80;21126;-60
2021/04/11 12:17:55;;;;;;;24.90;14.98;;;;;;;22.43;42.37;101615.51;1748219;80;21193;-59
2021/04/11 12:20:51;;;;;;;24.27;14.93;;;;;;;22.44;42.34;101611.61;1790428;79;21296;-58
2021/04/11 12:23:25;;;;;;;22.90;14.85;;;;;;;22.47;42.35;101609.59;1742132;80;21298;-59
2021/04/11 12:26:15;;;;;;;22.55;13.90;;;;;;;22.51;42.34;101611.17;1770724;80;21232;-59
2021/04/11 12:28:42;;;;;;;22.77;13.62;;;;;;;22.54;42.35;101611.37;1776485;79;21245;-60
2021/04/11 12:31:29;;;;;;;24.65;14.18;;;;;;;22.59;42.31;101597.39;1772622;79;21244;-59
2021/04/11 12:34:34;;;;;;;24.87;13.28;;;;;;;22.64;42.29;101597.84;1752194;79;21145;-59